• Join FlightAware (Why Join?)
  • Login
  • US Flag 
04:39PM EST


 

Airport Tracker/Info


-or-


 

Live Flight TrackerFlight Track Log ✈ SWA3924 ✈ 08-May-2013 ✈ KBNA - KLAX

Flight Track Log - Related Links

Times and Time Zones

All times are in EDT time to prevent confusion due to time zone crossing. See the SWA3924 flight status page for this flight to view local times or setup timezone preferences in your user account.

Time Position Orientation Groundspeed Altitude Reporting Facility
EDT Latitude Longitude Course Direction KTS MPH feet Rate Location/Type
03:43PM 36.1333 -86.7000 292° West 162 186 1,300  Level Nashville TRACON
03:44PM 36.1500 -86.7500 292° West 214 246 3,300 2,220 Climbing Nashville TRACON
03:45PM 36.1500 -86.8333 270° West 259 298 5,800 2,820 Climbing Nashville TRACON
03:46PM 36.1667 -86.9167 284° West 262 302 9,100 3,120 Climbing Nashville TRACON
03:46PM 36.1833 -86.9731 290° West 283 326 10,300 2,160 Climbing Memphis Center
03:47PM 36.2111 -87.0797 288° West 317 365 12,200 2,340 Climbing Memphis Center
03:48PM 36.2414 -87.1994 287° West 346 398 15,000 2,760 Climbing Memphis Center
03:49PM 36.2714 -87.3219 287° West 369 425 17,800 2,580 Climbing Memphis Center
03:50PM 36.3017 -87.4469 287° West 374 430 20,200 2,100 Climbing Memphis Center
03:51PM 36.3147 -87.5703 278° West 389 448 22,100 2,040 Climbing Memphis Center
03:52PM 36.3056 -87.7147 266° West 405 466 24,300 2,040 Climbing Memphis Center
03:53PM 36.2981 -87.8567 266° West 423 487 26,200 1,740 Climbing Memphis Center
03:54PM 36.2906 -88.0061 266° West 434 499 27,800 1,380 Climbing Memphis Center
03:55PM 36.2850 -88.1531 267° West 434 499 29,000 1,500 Climbing Memphis Center
03:56PM 36.2772 -88.3078 266° West 440 506 30,800 1,800 Climbing Memphis Center
03:57PM 36.2692 -88.4572 266° West 445 512 32,600 1,860 Climbing Memphis Center
03:58PM 36.2586 -88.6042 265° West 440 506 34,600 1,500 Climbing Memphis Center
03:59PM 36.2522 -88.7486 267° West 440 506 35,700 660 Climbing Memphis Center
04:00PM 36.2417 -88.8953 265° West 435 501 36,000 180 Climbing Memphis Center
04:01PM 36.2328 -89.0422 266° West 430 495 36,100 60 Climbing Memphis Center
04:02PM 36.2219 -89.1889 265° West 430 495 36,200 840 Climbing Memphis Center
04:03PM 36.2106 -89.3408 265° West 436 502 37,800 900 Climbing Memphis Center
04:04PM 36.2033 -89.4850 266° West 436 502 38,100 120 Climbing Memphis Center
04:05PM 36.1939 -89.6419 266° West 430 495 38,100  Level Memphis Center
04:06PM 36.1864 -89.7836 266° West 423 487 38,100  Level Memphis Center
04:07PM 36.1850 -89.9250 269° West 423 487 38,100  Level Memphis Center
04:08PM 36.1917 -90.0714 273° West 423 487 38,100  Level Memphis Center
04:09PM 36.1981 -90.2131 273° West 423 487 38,100  Level Memphis Center
04:10PM 36.2044 -90.3594 273° West 423 487 38,100  Level Memphis Center
04:11PM 36.2106 -90.5061 273° West 423 487 38,100  Level Memphis Center
04:12PM 36.2125 -90.6503 271° West 423 487 38,100  Level Memphis Center
04:13PM 36.2183 -90.7969 273° West 423 487 38,100  Level Memphis Center
04:14PM 36.2239 -90.9436 273° West 423 487 38,100  Level Memphis Center
04:15PM 36.2317 -91.0850 274° West 423 487 38,100 -60 Level Memphis Center
04:16PM 36.2328 -91.2267 271° West 423 487 38,000  Descending Memphis Center
04:18PM 36.2428 -91.5175 273° West 423 487 38,100  Climbing Memphis Center
04:19PM 36.2436 -91.6669 270° West 423 487 38,100  Level Memphis Center
04:20PM 36.2544 -91.8111 275° West 423 487 38,100 -60 Level Memphis Center
04:21PM 36.2569 -91.9553 271° West 423 487 38,000  Descending Memphis Center
04:22PM 36.2611 -92.1022 272° West 423 487 38,100  Climbing Memphis Center
04:23PM 36.2633 -92.2461 271° West 423 487 38,000  Descending Memphis Center
04:24PM 36.2650 -92.3906 271° West 423 487 38,100  Climbing Memphis Center
04:25PM 36.2689 -92.5347 272° West 423 487 38,100 -60 Level Memphis Center
04:26PM 36.2725 -92.6789 272° West 423 487 38,000 -60 Descending Memphis Center
04:27PM 36.2742 -92.8181 271° West 423 487 38,000  Level Memphis Center
04:28PM 36.2753 -92.9622 271° West 416 479 38,100  Climbing Memphis Center
04:29PM 36.2786 -93.0989 272° West 416 479 38,100  Level Memphis Center
04:30PM 36.2797 -93.2403 271° West 416 479 38,100  Level Memphis Center
04:31PM 36.2825 -93.3794 271° West 416 479 38,100  Level Memphis Center
04:32PM 36.2833 -93.5161 270° West 411 473 38,100 -60 Level Memphis Center
04:33PM 36.2858 -93.6578 271° West 411 473 38,000 -60 Descending Memphis Center
04:34PM 36.2819 -93.8017 268° West 416 479 38,000  Level Memphis Center
04:35PM 36.2844 -93.9408 271° West 416 479 38,100  Climbing Memphis Center
04:36PM 36.2864 -94.0825 271° West 416 479 38,000 -60 Descending Memphis Center
04:38PM 36.2922 -94.3558 272° West 404 465 38,000  Level Kansas City Center
04:39PM 36.2936 -94.5231 271° West 404 465 38,000  Level Kansas City Center
04:40PM 36.2936 -94.6611 270° West 402 463 38,000  Level Kansas City Center
04:41PM 36.2933 -94.7994 270° West 402 463 38,000  Level Kansas City Center
04:42PM 36.2933 -94.9386 270° West 403 464 38,100  Climbing Kansas City Center
04:43PM 36.2931 -95.0769 270° West 401 461 38,000  Descending Kansas City Center
04:44PM 36.2922 -95.0988 270° West  Level FlightAware Approximate
04:44PM 36.2928 -95.2175 270° West 400 460 38,100  Level Kansas City Center
04:45PM 36.2922 -95.3564 270° West 402 463 38,100 -60 Level Kansas City Center
04:46PM 36.2906 -95.5242 269° West 407 468 38,000 -60 Descending Kansas City Center
04:48PM 36.2897 -95.6636 270° West 406 467 38,000  Level Kansas City Center
04:49PM 36.2877 -95.7990 269° West  Level FlightAware Approximate
04:50PM 36.2881 -95.9500 269° West 402 463 38,100  Level Kansas City Center
04:51PM 36.2858 -96.0861 269° West 397 457 38,100 -60 Level Kansas City Center
04:52PM 36.2847 -96.2222 269° West 395 455 38,000  Descending Kansas City Center
04:53PM 36.2825 -96.3581 269° West 394 453 38,100  Climbing Kansas City Center
04:54PM 36.2811 -96.4947 269° West 395 455 38,000  Descending Kansas City Center
04:55PM 36.2797 -96.6592 269° West 397 457 38,100  Climbing Kansas City Center
04:56PM 36.2778 -96.7844 269° West 402 463 38,000 -60 Descending Kansas City Center
04:57PM 36.2753 -96.9244 269° West 407 468 38,000  Level Kansas City Center
04:58PM 36.2758 -97.0897 270° West 406 467 38,000  Level Kansas City Center
04:59PM 36.3042 -97.2242 285° West 407 468 38,000  Level Kansas City Center
05:00PM 36.3319 -97.3583 284° West 404 465 38,000  Level Kansas City Center
05:01PM 36.3606 -97.4922 285° West 404 465 38,000  Level Kansas City Center
05:02PM 36.3894 -97.6256 285° West 404 465 38,000  Level Kansas City Center
05:03PM 36.4233 -97.7864 285° West 404 465 38,000  Level Kansas City Center
05:04PM 36.4503 -97.9206 284° West 403 464 38,000  Level Kansas City Center
05:05PM 36.4792 -98.0550 285° West 403 464 38,000  Level Kansas City Center
05:06PM 36.5061 -98.1892 284° West 402 463 38,000  Level Kansas City Center
05:07PM 36.5344 -98.3256 285° West 404 465 38,000  Level Kansas City Center
05:08PM 36.5614 -98.4600 284° West 403 464 38,100  Climbing Kansas City Center
05:09PM 36.5944 -98.6231 284° West 405 466 38,100  Level Kansas City Center
05:10PM 36.6219 -98.7586 284° West 406 467 38,100 -60 Level Kansas City Center
05:11PM 36.6497 -98.8942 284° West 406 467 38,000 -60 Descending Kansas City Center
05:12PM 36.6758 -99.0272 284° West 400 460 38,000  Level Kansas City Center
05:13PM 36.6983 -99.1603 282° West 396 456 38,000  Level Kansas City Center
05:14PM 36.6883 -99.2975 265° West 398 458 38,000  Level Kansas City Center
05:15PM 36.6744 -99.4622 264° West 400 460 38,000  Level Kansas City Center
05:16PM 36.6619 -99.5986 264° West 399 459 38,100  Climbing Kansas City Center
05:17PM 36.6506 -99.7367 264° West 401 461 38,000 -60 Descending Kansas City Center
05:19PM 36.6386 -99.8731 264° West 399 459 38,000  Level Kansas City Center
05:20PM 36.6278 -100.0097 264° West 399 459 38,100  Climbing Kansas City Center
05:21PM 36.6147 -100.1467 263° West 397 457 38,000  Descending Kansas City Center
05:22PM 36.5992 -100.3103 263° West 397 457 38,100  Climbing Kansas City Center
05:23PM 36.5861 -100.4539 264° West 398 458 38,100 -60 Level Kansas City Center
05:24PM 36.5731 -100.5850 263° West 398 458 38,000  Descending Kansas City Center
05:25PM 36.5606 -100.7156 263° West 398 458 38,100  Climbing Kansas City Center
05:26PM 36.5453 -100.8675 263° West 396 456 38,100  Level Kansas City Center
05:27PM 36.5322 -100.9983 263° West 397 457 38,100  Level Kansas City Center
05:28PM 36.5169 -101.1519 263° West 399 459 38,100  Level Kansas City Center
05:29PM 36.5039 -101.2847 263° West 402 463 38,100  Level Kansas City Center
05:30PM 36.4886 -101.4403 263° West 404 465 38,100  Level Kansas City Center
05:31PM 36.4747 -101.5719 263° West 403 464 38,100 -60 Level Kansas City Center
05:32PM 36.4597 -101.7086 262° West 402 463 38,000  Descending Kansas City Center
05:33PM 36.4461 -101.8450 263° West 401 461 38,100  Climbing Kansas City Center
05:34PM 36.4283 -102.0067 262° West 398 458 38,000  Descending Kansas City Center
05:35PM 36.4139 -102.1419 262° West 397 457 38,100  Climbing Kansas City Center
05:36PM 36.3994 -102.2792 263° West 401 461 38,100  Level Kansas City Center
05:37PM 36.3844 -102.4150 262° West 399 459 38,100  Level Kansas City Center
05:38PM 36.3656 -102.5808 262° West 406 467 38,100  Level Albuquerque Center
05:39PM 36.3492 -102.7219 262° West 414 476 38,100 -60 Level Albuquerque Center
05:40PM 36.3328 -102.8617 262° West 413 475 38,000  Descending Albuquerque Center
05:41PM 36.3144 -103.0250 262° West 415 478 38,100  Climbing Albuquerque Center
05:42PM 36.2981 -103.1672 262° West 414 476 38,100 -60 Level Albuquerque Center
05:43PM 36.2828 -103.3103 262° West 417 480 38,000  Descending Albuquerque Center
05:45PM 36.2656 -103.4517 261° West 415 478 38,100  Climbing Albuquerque Center
05:46PM 36.2483 -103.5906 261° West 409 471 38,100  Level Albuquerque Center
05:47PM 36.2286 -103.7553 262° West 412 474 38,100  Level Albuquerque Center
05:48PM 36.2108 -103.8969 261° West 412 474 38,100 -60 Level Albuquerque Center
05:49PM 36.1939 -104.0389 262° West 414 476 38,000  Descending Albuquerque Center
05:50PM 36.1761 -104.1744 261° West 404 465 38,100  Climbing Albuquerque Center
05:51PM 36.1578 -104.3103 261° West 401 461 38,100  Level Albuquerque Center
05:52PM 36.1397 -104.4464 261° West 400 460 38,100  Level Albuquerque Center
05:53PM 36.1236 -104.5817 262° West 398 458 38,100 -60 Level Albuquerque Center
05:54PM 36.1028 -104.7394 261° West 397 457 38,000  Descending Albuquerque Center
05:55PM 36.0842 -104.8764 260° West 401 461 38,100  Climbing Albuquerque Center
05:56PM 36.0656 -105.0122 260° West 399 459 38,000  Descending Albuquerque Center
05:57PM 36.0475 -105.1447 260° West 393 452 38,100  Climbing Albuquerque Center
05:58PM 36.0294 -105.2772 260° West 390 449 38,100  Level Albuquerque Center
05:59PM 36.0114 -105.4122 261° West 393 452 38,100 -60 Level Albuquerque Center
06:00PM 35.9914 -105.5514 260° West 393 452 38,000  Descending Albuquerque Center
06:01PM 35.9731 -105.6881 261° West 401 461 38,100  Climbing Albuquerque Center
06:02PM 35.9547 -105.8242 261° West 403 464 38,000 -60 Descending Albuquerque Center
06:03PM 35.9358 -105.9558 260° West 396 456 38,000  Level Albuquerque Center
06:04PM 35.9142 -106.1139 260° West 391 450 38,100  Climbing Albuquerque Center
06:05PM 35.8961 -106.2350 260° West 390 449 38,100  Level Albuquerque Center
06:06PM 35.8761 -106.3853 261° West 395 455 38,100  Level Albuquerque Center
06:07PM 35.8569 -106.5117 259° West 393 452 38,100 -60 Level Albuquerque Center
06:08PM 35.8361 -106.6597 260° West 393 452 38,000  Descending Albuquerque Center
06:09PM 35.8172 -106.7881 260° West 396 456 38,100  Climbing Albuquerque Center
06:10PM 35.7944 -106.9358 259° West 394 453 38,000  Descending Albuquerque Center
06:11PM 35.7747 -107.0611 259° West 390 449 38,100  Climbing Albuquerque Center
06:12PM 35.7522 -107.2075 259° West 390 449 38,100 -60 Level Albuquerque Center
06:13PM 35.7333 -107.3325 259° West 388 447 38,000  Descending Albuquerque Center
06:14PM 35.7147 -107.4586 260° West 390 449 38,100  Climbing Albuquerque Center
06:15PM 35.6917 -107.6056 259° West 392 451 38,000  Descending Albuquerque Center
06:17PM 35.6711 -107.7347 259° West 398 458 38,100  Climbing Albuquerque Center
06:18PM 35.6483 -107.8831 259° West 396 456 38,100  Level Albuquerque Center
06:19PM 35.6283 -108.0111 259° West 398 458 38,100  Level Albuquerque Center
06:20PM 35.6039 -108.1586 259° West 396 456 38,100  Level Albuquerque Center
06:21PM 35.5839 -108.2847 259° West 392 451 38,100  Level Albuquerque Center
06:22PM 35.5606 -108.4311 259° West 390 449 38,100 -60 Level Albuquerque Center
06:23PM 35.5397 -108.5561 258° West 390 449 38,000 -60 Descending Albuquerque Center
06:24PM 35.5144 -108.7017 258° West 388 447 38,000  Level Albuquerque Center
06:25PM 35.4942 -108.8253 259° West 386 444 38,100  Climbing Albuquerque Center
06:26PM 35.4739 -108.9494 259° West 387 445 38,100  Level Albuquerque Center
06:27PM 35.4497 -109.0928 258° West 384 442 38,100  Level Albuquerque Center
06:28PM 35.4281 -109.2186 258° West 388 447 38,100  Level Albuquerque Center
06:29PM 35.4031 -109.3639 258° West 389 448 38,100  Level Albuquerque Center
06:30PM 35.3819 -109.4875 258° West 392 451 38,100  Level Albuquerque Center
06:31PM 35.3561 -109.6281 257° West 382 440 38,100  Level Albuquerque Center
06:32PM 35.3347 -109.7497 258° West 379 436 38,100  Level Albuquerque Center
06:33PM 35.3133 -109.8728 258° West 384 442 38,100  Level Albuquerque Center
06:34PM 35.2872 -110.0139 257° West 382 440 38,100  Level Albuquerque Center
06:35PM 35.2636 -110.1381 257° West 386 444 38,100  Level Albuquerque Center
06:36PM 35.2369 -110.2825 257° West 390 449 38,100  Level Albuquerque Center
06:37PM 35.2136 -110.4044 257° West 388 447 38,100  Level Albuquerque Center
06:38PM 35.1883 -110.5486 258° West 387 445 38,100 -60 Level Albuquerque Center
06:39PM 35.1650 -110.6722 257° West 388 447 38,000  Descending Albuquerque Center
06:40PM 35.1378 -110.8153 257° West 388 447 38,100  Climbing Albuquerque Center
06:41PM 35.1142 -110.9400 257° West 391 450 38,100  Level Albuquerque Center
06:42PM 35.0919 -111.0650 258° West 392 451 38,100 -60 Level Albuquerque Center
06:43PM 35.0683 -111.2081 259° West 401 461 38,000  Descending Albuquerque Center
06:44PM 35.0436 -111.3372 257° West 395 455 38,100  Climbing Albuquerque Center
06:45PM 35.0194 -111.4656 257° West 392 451 38,000 -60 Descending Albuquerque Center
06:46PM 34.9903 -111.6194 257° West 390 449 38,000  Level Albuquerque Center
06:47PM 34.9658 -111.7408 256° West 391 450 38,000  Level Albuquerque Center
06:48PM 34.9417 -111.8697 257° West 391 450 38,000  Level Albuquerque Center
06:50PM 34.9164 -111.9975 256° West 390 449 38,000  Level Albuquerque Center
06:51PM 34.8908 -112.1267 256° West 391 450 38,000  Level Albuquerque Center
06:52PM 34.8606 -112.2786 256° West 388 447 38,000  Level Albuquerque Center
06:53PM 34.8358 -112.4067 257° West 388 447 38,000  Level Albuquerque Center
06:54PM 34.8103 -112.5342 256° West 388 447 38,000  Level Albuquerque Center
06:55PM 34.7842 -112.6619 256° West 389 448 38,000  Level Albuquerque Center
06:56PM 34.7578 -112.7908 256° West 391 450 38,000  Level Albuquerque Center
06:57PM 34.7317 -112.9214 256° West 395 455 38,000  Level Albuquerque Center
06:58PM 34.7050 -113.0519 256° West 398 458 38,000  Level Albuquerque Center
06:59PM 34.6722 -113.2100 256° West 401 461 38,000  Level Albuquerque Center
07:00PM 34.6450 -113.3439 256° West 404 465 38,000  Level Albuquerque Center
07:01PM 34.6181 -113.4756 256° West 404 465 38,000  Level Albuquerque Center
07:02PM 34.5900 -113.6050 255° West 402 463 38,000  Level Albuquerque Center
07:03PM 34.5606 -113.7392 255° West 400 460 38,100  Climbing Albuquerque Center
07:04PM 34.5331 -113.8700 256° West 401 461 38,100  Level Albuquerque Center
07:05PM 34.5047 -114.0008 255° West 401 461 38,100  Level Albuquerque Center
07:06PM 34.4772 -114.1322 256° West 402 463 38,100 -120 Level Albuquerque Center
07:06PM 34.4664 -114.1844 256° West 402 463 38,000 -120 Descending Los Angeles Center
07:07PM 34.4381 -114.3144 255° West 402 463 38,000  Level Los Angeles Center
07:08PM 34.4092 -114.4453 255° West 403 464 38,000  Level Los Angeles Center
07:09PM 34.3836 -114.6072 259° West 408 470 38,000  Level Los Angeles Center
07:10PM 34.3631 -114.7408 259° West 408 470 38,000  Level Los Angeles Center
07:11PM 34.3408 -114.8747 259° West 407 468 38,000  Level Los Angeles Center
07:13PM 34.3189 -115.0081 259° West 406 467 38,000  Level Los Angeles Center
07:14PM 34.3017 -115.1161 259° West 410 472 38,000  Level Los Angeles Center
07:15PM 34.2750 -115.2761 259° West 407 468 38,000  Level Los Angeles Center
07:16PM 34.2475 -115.4375 258° West 410 472 38,000  Level Los Angeles Center
07:17PM 34.2264 -115.5717 259° West 408 470 38,000  Level Los Angeles Center
07:18PM 34.2022 -115.7058 258° West 410 472 38,000  Level Los Angeles Center
07:19PM 34.1842 -115.8117 258° West 407 468 38,000 -240 Level Los Angeles Center
07:20PM 34.1550 -115.9828 258° West 410 472 37,600 -1,440 Descending Los Angeles Center
07:21PM 34.1319 -116.1158 258° West 406 467 35,000 -2,820 Descending Los Angeles Center
07:22PM 34.1061 -116.2653 258° West 408 470 31,800 -2,700 Descending Los Angeles Center
07:23PM 34.0833 -116.3958 258° West 400 460 29,500 -1,980 Descending Los Angeles Center
07:24PM 34.0650 -116.4969 258° West 390 449 27,800 -2,040 Descending Los Angeles Center
07:25PM 34.0394 -116.6419 258° West 371 427 25,300 -2,040 Descending Los Angeles Center
07:26PM 34.0219 -116.7386 258° West 370 426 23,600 -2,280 Descending Los Angeles Center
07:27PM 34.0000 -116.8833 260° West 367 422 21,200 -2,580 Descending Southern California TRACON
07:28PM 33.9833 -116.9833 259° West 351 404 19,300 -2,100 Descending Southern California TRACON
07:29PM 33.9500 -117.1000 251° West 346 398 17,100 -1,200 Descending Southern California TRACON
07:30PM 33.9500 -117.2167 270° West 336 387 16,900 -1,080 Descending Southern California TRACON
07:31PM 33.9333 -117.3333 260° West 330 380 15,000 -1,980 Descending Southern California TRACON
07:32PM 33.9500 -117.4333 281° West 326 375 13,000 -1,980 Descending Southern California TRACON
07:33PM 33.9833 -117.5333 292° West 325 374 11,100 -1,500 Descending Southern California TRACON
07:34PM 34.0167 -117.6333 292° West 354 407 10,000 -900 Descending Southern California TRACON
07:35PM 34.0000 -117.7333 259° West 284 327 9,400 -1,080 Descending Southern California TRACON
07:36PM 34.0000 -117.8333 270° West 293 337 7,900 -1,440 Descending Southern California TRACON
07:37PM 33.9833 -117.9333 259° West 289 333 6,600 -1,200 Descending Southern California TRACON
07:38PM 33.9667 -118.0167 256° West 267 307 5,600 -960 Descending Southern California TRACON
07:39PM 33.9667 -118.1000 270° West 253 291 4,700 -900 Descending Southern California TRACON
07:40PM 33.9769 -118.1667 281° West 247 284 4,000 -1,020 Descending Los Angeles Center
07:41PM 33.9697 -118.2347 263° West 217 250 2,800 -1,020 Descending Los Angeles Center
07:42PM 33.9636 -118.2886 262° West 188 216 2,000 -720 Descending Los Angeles Center
07:43PM 33.9592 -118.3319 263° West 155 178 1,400 -780 Descending Los Angeles Center
07:44PM 33.9550 -118.3822 264° West 135 155 400 -960 Descending Los Angeles Center